ADDS METAR Data INFO
IDs: Format: Raw Decoded Include TAF

Data at: 1733 UTC 18 Jan 2018

METAR for:KIND (Indianapolis Intl, IN, US)
Text:KIND 181654Z 23017KT 10SM CLR M06/M12 A3028 RMK AO2 SLP269 T10561117
Temperature: -5.6°C ( 22°F)
Dewpoint:-11.7°C ( 11°F) [RH = 62%]
Pressure (altimeter):30.28 inches Hg (1025.5 mb) [Sea level pressure: 1026.9 mb]
Winds:from the SW (230 degrees) at 20 MPH (17 knots; 8.7 m/s)
Visibility:10 or more sm (16+ km)
Ceiling:at least 12,000 feet AGL
Clouds:sky clear below 12,000 feet AGL